sensor_id;sensor_type;location;lat;lon;timestamp;temperature;humidity
76239;SHT30;65043;48.392;-4.472;2023-12-28T00:02:04;13.27;75.54
76239;SHT30;65043;48.392;-4.472;2023-12-28T00:04:30;13.32;75.38
76239;SHT30;65043;48.392;-4.472;2023-12-28T00:06:55;13.29;75.29
76239;SHT30;65043;48.392;-4.472;2023-12-28T00:09:21;13.29;75.61
76239;SHT30;65043;48.392;-4.472;2023-12-28T00:11:47;13.29;75.53
76239;SHT30;65043;48.392;-4.472;2023-12-28T00:14:12;13.32;75.69
76239;SHT30;65043;48.392;-4.472;2023-12-28T00:16:38;13.30;75.68
76239;SHT30;65043;48.392;-4.472;2023-12-28T00:19:04;13.29;75.66
76239;SHT30;65043;48.392;-4.472;2023-12-28T00:21:30;13.27;75.80
76239;SHT30;65043;48.392;-4.472;2023-12-28T00:23:55;13.27;75.76
76239;SHT30;65043;48.392;-4.472;2023-12-28T00:26:21;13.27;75.73
76239;SHT30;65043;48.392;-4.472;2023-12-28T00:28:48;13.26;76.03
76239;SHT30;65043;48.392;-4.472;2023-12-28T00:31:14;13.24;76.19
76239;SHT30;65043;48.392;-4.472;2023-12-28T00:33:40;13.26;76.12
76239;SHT30;65043;48.392;-4.472;2023-12-28T00:36:06;13.26;76.05
76239;SHT30;65043;48.392;-4.472;2023-12-28T00:38:31;13.26;75.82
76239;SHT30;65043;48.392;-4.472;2023-12-28T00:40:57;13.24;75.82
76239;SHT30;65043;48.392;-4.472;2023-12-28T00:43:22;13.26;75.88
76239;SHT30;65043;48.392;-4.472;2023-12-28T00:45:48;13.26;75.88
76239;SHT30;65043;48.392;-4.472;2023-12-28T00:48:13;13.23;75.61
76239;SHT30;65043;48.392;-4.472;2023-12-28T00:50:39;13.22;75.16
76239;SHT30;65043;48.392;-4.472;2023-12-28T00:53:04;13.22;75.20
76239;SHT30;65043;48.392;-4.472;2023-12-28T00:55:30;13.24;74.83
76239;SHT30;65043;48.392;-4.472;2023-12-28T00:57:56;13.26;74.21
76239;SHT30;65043;48.392;-4.472;2023-12-28T01:00:21;13.22;74.69
76239;SHT30;65043;48.392;-4.472;2023-12-28T01:02:47;13.23;74.91
76239;SHT30;65043;48.392;-4.472;2023-12-28T01:05:13;13.20;75.07
76239;SHT30;65043;48.392;-4.472;2023-12-28T01:07:39;13.22;75.27
76239;SHT30;65043;48.392;-4.472;2023-12-28T01:10:05;13.24;75.50
76239;SHT30;65043;48.392;-4.472;2023-12-28T01:12:31;13.26;75.72
76239;SHT30;65043;48.392;-4.472;2023-12-28T01:14:56;13.27;75.78
76239;SHT30;65043;48.392;-4.472;2023-12-28T01:17:22;13.29;75.96
76239;SHT30;65043;48.392;-4.472;2023-12-28T01:19:47;13.30;76.16
76239;SHT30;65043;48.392;-4.472;2023-12-28T01:22:13;13.26;76.37
76239;SHT30;65043;48.392;-4.472;2023-12-28T01:24:38;13.29;76.69
76239;SHT30;65043;48.392;-4.472;2023-12-28T01:27:03;13.27;77.03
76239;SHT30;65043;48.392;-4.472;2023-12-28T01:29:29;13.27;77.05
76239;SHT30;65043;48.392;-4.472;2023-12-28T01:31:55;13.29;77.08
76239;SHT30;65043;48.392;-4.472;2023-12-28T01:34:20;13.29;76.98
76239;SHT30;65043;48.392;-4.472;2023-12-28T01:36:45;13.26;77.03
76239;SHT30;65043;48.392;-4.472;2023-12-28T01:39:11;13.23;76.50
76239;SHT30;65043;48.392;-4.472;2023-12-28T01:41:37;13.24;76.19
76239;SHT30;65043;48.392;-4.472;2023-12-28T01:44:02;13.24;76.00
76239;SHT30;65043;48.392;-4.472;2023-12-28T01:46:28;13.22;75.76
76239;SHT30;65043;48.392;-4.472;2023-12-28T01:48:55;13.27;75.36
76239;SHT30;65043;48.392;-4.472;2023-12-28T01:51:20;13.26;75.47
76239;SHT30;65043;48.392;-4.472;2023-12-28T01:53:47;13.22;75.69
76239;SHT30;65043;48.392;-4.472;2023-12-28T01:56:13;13.26;75.76
76239;SHT30;65043;48.392;-4.472;2023-12-28T01:58:41;13.26;75.95
76239;SHT30;65043;48.392;-4.472;2023-12-28T02:01:09;13.29;76.16
76239;SHT30;65043;48.392;-4.472;2023-12-28T02:03:35;13.26;76.35
76239;SHT30;65043;48.392;-4.472;2023-12-28T02:06:01;13.29;76.37
76239;SHT30;65043;48.392;-4.472;2023-12-28T02:08:27;13.29;76.52
76239;SHT30;65043;48.392;-4.472;2023-12-28T02:10:53;13.32;76.62
76239;SHT30;65043;48.392;-4.472;2023-12-28T02:13:20;13.29;76.66
76239;SHT30;65043;48.392;-4.472;2023-12-28T02:15:47;13.32;76.56
76239;SHT30;65043;48.392;-4.472;2023-12-28T02:18:21;13.32;76.52
76239;SHT30;65043;48.392;-4.472;2023-12-28T02:20:49;13.36;76.29
76239;SHT30;65043;48.392;-4.472;2023-12-28T02:23:16;13.30;76.28
76239;SHT30;65043;48.392;-4.472;2023-12-28T02:25:41;13.30;76.30
76239;SHT30;65043;48.392;-4.472;2023-12-28T02:28:07;13.33;76.47
76239;SHT30;65043;48.392;-4.472;2023-12-28T02:30:33;13.32;76.44
76239;SHT30;65043;48.392;-4.472;2023-12-28T02:33:26;13.33;76.39
76239;SHT30;65043;48.392;-4.472;2023-12-28T02:36:01;13.38;76.25
76239;SHT30;65043;48.392;-4.472;2023-12-28T02:38:29;13.35;76.46
76239;SHT30;65043;48.392;-4.472;2023-12-28T02:40:56;13.38;76.11
76239;SHT30;65043;48.392;-4.472;2023-12-28T02:43:22;13.38;75.41
76239;SHT30;65043;48.392;-4.472;2023-12-28T02:45:47;13.38;75.30
76239;SHT30;65043;48.392;-4.472;2023-12-28T02:48:13;13.36;75.32
76239;SHT30;65043;48.392;-4.472;2023-12-28T02:50:39;13.35;75.14
76239;SHT30;65043;48.392;-4.472;2023-12-28T02:53:04;13.38;74.88
76239;SHT30;65043;48.392;-4.472;2023-12-28T02:55:30;13.36;74.81
76239;SHT30;65043;48.392;-4.472;2023-12-28T02:57:58;13.36;75.30
76239;SHT30;65043;48.392;-4.472;2023-12-28T03:00:24;13.33;75.53
76239;SHT30;65043;48.392;-4.472;2023-12-28T03:02:50;13.36;75.48
76239;SHT30;65043;48.392;-4.472;2023-12-28T03:05:16;13.38;75.52
76239;SHT30;65043;48.392;-4.472;2023-12-28T03:07:42;13.42;75.24
76239;SHT30;65043;48.392;-4.472;2023-12-28T03:10:08;13.35;75.28
76239;SHT30;65043;48.392;-4.472;2023-12-28T03:12:36;13.40;75.27
76239;SHT30;65043;48.392;-4.472;2023-12-28T03:15:02;13.38;75.38
76239;SHT30;65043;48.392;-4.472;2023-12-28T03:17:28;13.36;75.19
76239;SHT30;65043;48.392;-4.472;2023-12-28T03:19:56;13.39;75.57
76239;SHT30;65043;48.392;-4.472;2023-12-28T03:22:22;13.39;75.72
76239;SHT30;65043;48.392;-4.472;2023-12-28T03:24:48;13.38;75.59
76239;SHT30;65043;48.392;-4.472;2023-12-28T03:27:14;13.38;75.97
76239;SHT30;65043;48.392;-4.472;2023-12-28T03:29:41;13.39;76.09
76239;SHT30;65043;48.392;-4.472;2023-12-28T03:32:07;13.36;76.28
76239;SHT30;65043;48.392;-4.472;2023-12-28T03:34:32;13.38;76.41
76239;SHT30;65043;48.392;-4.472;2023-12-28T03:36:59;13.39;76.67
76239;SHT30;65043;48.392;-4.472;2023-12-28T03:39:24;13.39;77.02
76239;SHT30;65043;48.392;-4.472;2023-12-28T03:41:50;13.35;77.01
76239;SHT30;65043;48.392;-4.472;2023-12-28T03:44:15;13.33;76.99
76239;SHT30;65043;48.392;-4.472;2023-12-28T03:46:41;13.36;77.12
76239;SHT30;65043;48.392;-4.472;2023-12-28T03:49:06;13.36;77.32
76239;SHT30;65043;48.392;-4.472;2023-12-28T03:51:32;13.36;77.16
76239;SHT30;65043;48.392;-4.472;2023-12-28T03:53:57;13.39;77.26
76239;SHT30;65043;48.392;-4.472;2023-12-28T03:56:26;13.38;77.21
76239;SHT30;65043;48.392;-4.472;2023-12-28T03:58:52;13.36;77.23
76239;SHT30;65043;48.392;-4.472;2023-12-28T04:01:19;13.38;77.13
76239;SHT30;65043;48.392;-4.472;2023-12-28T04:03:45;13.39;76.68
76239;SHT30;65043;48.392;-4.472;2023-12-28T04:06:12;13.38;76.46
76239;SHT30;65043;48.392;-4.472;2023-12-28T04:08:38;13.36;76.52
76239;SHT30;65043;48.392;-4.472;2023-12-28T04:11:04;13.38;76.49
76239;SHT30;65043;48.392;-4.472;2023-12-28T04:13:30;13.35;76.30
76239;SHT30;65043;48.392;-4.472;2023-12-28T04:15:55;13.36;76.46
76239;SHT30;65043;48.392;-4.472;2023-12-28T04:18:20;13.35;76.53
76239;SHT30;65043;48.392;-4.472;2023-12-28T04:20:46;13.36;76.21
76239;SHT30;65043;48.392;-4.472;2023-12-28T04:23:12;13.35;76.35
76239;SHT30;65043;48.392;-4.472;2023-12-28T04:25:37;13.36;76.25
76239;SHT30;65043;48.392;-4.472;2023-12-28T04:28:03;13.35;76.15
76239;SHT30;65043;48.392;-4.472;2023-12-28T04:30:28;13.38;76.24
76239;SHT30;65043;48.392;-4.472;2023-12-28T04:32:54;13.32;76.35
76239;SHT30;65043;48.392;-4.472;2023-12-28T04:35:19;13.32;76.51
76239;SHT30;65043;48.392;-4.472;2023-12-28T04:37:45;13.32;76.69
76239;SHT30;65043;48.392;-4.472;2023-12-28T04:40:11;13.29;77.01
76239;SHT30;65043;48.392;-4.472;2023-12-28T04:42:39;13.35;77.02
76239;SHT30;65043;48.392;-4.472;2023-12-28T04:45:05;13.33;77.19
76239;SHT30;65043;48.392;-4.472;2023-12-28T04:47:31;13.33;77.17
76239;SHT30;65043;48.392;-4.472;2023-12-28T04:49:57;13.35;77.23
76239;SHT30;65043;48.392;-4.472;2023-12-28T04:52:22;13.35;77.11
76239;SHT30;65043;48.392;-4.472;2023-12-28T04:54:48;13.30;77.28
76239;SHT30;65043;48.392;-4.472;2023-12-28T04:57:13;13.32;77.01
76239;SHT30;65043;48.392;-4.472;2023-12-28T04:59:39;13.30;77.02
76239;SHT30;65043;48.392;-4.472;2023-12-28T05:02:05;13.29;76.89
76239;SHT30;65043;48.392;-4.472;2023-12-28T05:04:31;13.35;76.47
76239;SHT30;65043;48.392;-4.472;2023-12-28T05:06:57;13.36;76.17
76239;SHT30;65043;48.392;-4.472;2023-12-28T05:09:22;13.35;76.50
76239;SHT30;65043;48.392;-4.472;2023-12-28T05:11:47;13.33;76.92
76239;SHT30;65043;48.392;-4.472;2023-12-28T05:14:13;13.29;77.10
76239;SHT30;65043;48.392;-4.472;2023-12-28T05:16:38;13.27;77.28
76239;SHT30;65043;48.392;-4.472;2023-12-28T05:19:04;13.29;77.27
76239;SHT30;65043;48.392;-4.472;2023-12-28T05:21:29;13.26;77.14
76239;SHT30;65043;48.392;-4.472;2023-12-28T05:23:55;13.27;76.89
76239;SHT30;65043;48.392;-4.472;2023-12-28T05:26:20;13.26;76.56
76239;SHT30;65043;48.392;-4.472;2023-12-28T05:28:46;13.27;76.47
76239;SHT30;65043;48.392;-4.472;2023-12-28T05:31:11;13.24;76.45
76239;SHT30;65043;48.392;-4.472;2023-12-28T05:33:38;13.24;76.46
76239;SHT30;65043;48.392;-4.472;2023-12-28T05:36:05;13.22;76.44
76239;SHT30;65043;48.392;-4.472;2023-12-28T05:38:30;13.23;76.49
76239;SHT30;65043;48.392;-4.472;2023-12-28T05:40:56;13.20;76.77
76239;SHT30;65043;48.392;-4.472;2023-12-28T05:43:21;13.22;76.99
76239;SHT30;65043;48.392;-4.472;2023-12-28T05:45:47;13.22;77.09
76239;SHT30;65043;48.392;-4.472;2023-12-28T05:48:12;13.24;77.15
76239;SHT30;65043;48.392;-4.472;2023-12-28T05:50:38;13.20;76.94
76239;SHT30;65043;48.392;-4.472;2023-12-28T05:53:03;13.24;76.93
76239;SHT30;65043;48.392;-4.472;2023-12-28T05:55:29;13.26;76.97
76239;SHT30;65043;48.392;-4.472;2023-12-28T05:57:54;13.26;76.91
76239;SHT30;65043;48.392;-4.472;2023-12-28T06:00:20;13.24;76.87
76239;SHT30;65043;48.392;-4.472;2023-12-28T06:02:45;13.29;76.81
76239;SHT30;65043;48.392;-4.472;2023-12-28T06:05:12;13.27;76.89
76239;SHT30;65043;48.392;-4.472;2023-12-28T06:07:38;13.27;77.03
76239;SHT30;65043;48.392;-4.472;2023-12-28T06:10:03;13.26;77.12
76239;SHT30;65043;48.392;-4.472;2023-12-28T06:12:29;13.20;76.94
76239;SHT30;65043;48.392;-4.472;2023-12-28T06:14:57;13.23;76.86
76239;SHT30;65043;48.392;-4.472;2023-12-28T06:17:23;13.24;76.77
76239;SHT30;65043;48.392;-4.472;2023-12-28T06:19:48;13.19;77.01
76239;SHT30;65043;48.392;-4.472;2023-12-28T06:22:15;13.23;77.27
76239;SHT30;65043;48.392;-4.472;2023-12-28T06:24:41;13.19;76.44
76239;SHT30;65043;48.392;-4.472;2023-12-28T06:27:06;13.20;74.81
76239;SHT30;65043;48.392;-4.472;2023-12-28T06:29:34;13.20;73.04
76239;SHT30;65043;48.392;-4.472;2023-12-28T06:32:00;13.22;73.14
76239;SHT30;65043;48.392;-4.472;2023-12-28T06:34:25;13.18;72.20
76239;SHT30;65043;48.392;-4.472;2023-12-28T06:36:51;13.19;72.64
76239;SHT30;65043;48.392;-4.472;2023-12-28T06:39:17;13.18;72.46
76239;SHT30;65043;48.392;-4.472;2023-12-28T06:41:47;13.16;72.59
76239;SHT30;65043;48.392;-4.472;2023-12-28T06:44:12;13.18;72.68
76239;SHT30;65043;48.392;-4.472;2023-12-28T06:46:40;13.13;73.20
76239;SHT30;65043;48.392;-4.472;2023-12-28T06:49:05;13.13;73.08
76239;SHT30;65043;48.392;-4.472;2023-12-28T06:51:31;13.12;73.33
76239;SHT30;65043;48.392;-4.472;2023-12-28T06:53:56;13.09;73.48
76239;SHT30;65043;48.392;-4.472;2023-12-28T06:56:22;13.15;73.38
76239;SHT30;65043;48.392;-4.472;2023-12-28T06:58:48;13.13;71.88
76239;SHT30;65043;48.392;-4.472;2023-12-28T07:01:13;13.08;71.99
76239;SHT30;65043;48.392;-4.472;2023-12-28T07:03:40;13.06;72.70
76239;SHT30;65043;48.392;-4.472;2023-12-28T07:06:05;13.11;72.76
76239;SHT30;65043;48.392;-4.472;2023-12-28T07:08:31;13.11;73.35
76239;SHT30;65043;48.392;-4.472;2023-12-28T07:10:56;13.15;73.44
76239;SHT30;65043;48.392;-4.472;2023-12-28T07:13:22;13.15;72.94
76239;SHT30;65043;48.392;-4.472;2023-12-28T07:15:48;13.15;72.40
76239;SHT30;65043;48.392;-4.472;2023-12-28T07:18:14;13.18;72.13
76239;SHT30;65043;48.392;-4.472;2023-12-28T07:20:39;13.16;72.16
76239;SHT30;65043;48.392;-4.472;2023-12-28T07:23:05;13.12;71.90
76239;SHT30;65043;48.392;-4.472;2023-12-28T07:25:30;13.13;71.84
76239;SHT30;65043;48.392;-4.472;2023-12-28T07:27:56;13.13;71.68
76239;SHT30;65043;48.392;-4.472;2023-12-28T07:30:22;13.12;71.45
76239;SHT30;65043;48.392;-4.472;2023-12-28T07:32:47;13.09;71.76
76239;SHT30;65043;48.392;-4.472;2023-12-28T07:35:15;13.13;71.92
76239;SHT30;65043;48.392;-4.472;2023-12-28T07:37:41;13.13;72.13
76239;SHT30;65043;48.392;-4.472;2023-12-28T07:40:06;13.13;72.53
76239;SHT30;65043;48.392;-4.472;2023-12-28T07:42:32;13.11;71.83
76239;SHT30;65043;48.392;-4.472;2023-12-28T07:44:58;13.09;71.59
76239;SHT30;65043;48.392;-4.472;2023-12-28T07:47:23;13.09;71.41
76239;SHT30;65043;48.392;-4.472;2023-12-28T07:49:51;13.06;71.60
76239;SHT30;65043;48.392;-4.472;2023-12-28T07:52:17;13.06;72.23
76239;SHT30;65043;48.392;-4.472;2023-12-28T07:54:42;13.08;72.22
76239;SHT30;65043;48.392;-4.472;2023-12-28T07:57:08;13.12;72.21
76239;SHT30;65043;48.392;-4.472;2023-12-28T07:59:33;13.08;71.89
76239;SHT30;65043;48.392;-4.472;2023-12-28T08:01:58;13.09;72.64
76239;SHT30;65043;48.392;-4.472;2023-12-28T08:04:24;13.09;72.95
76239;SHT30;65043;48.392;-4.472;2023-12-28T08:06:49;13.11;73.08
76239;SHT30;65043;48.392;-4.472;2023-12-28T08:09:15;13.15;73.14
76239;SHT30;65043;48.392;-4.472;2023-12-28T08:11:41;13.16;73.47
76239;SHT30;65043;48.392;-4.472;2023-12-28T08:14:07;13.18;73.57
76239;SHT30;65043;48.392;-4.472;2023-12-28T08:16:32;13.13;74.32
76239;SHT30;65043;48.392;-4.472;2023-12-28T08:19:00;13.15;74.48
76239;SHT30;65043;48.392;-4.472;2023-12-28T08:21:25;13.16;74.64
76239;SHT30;65043;48.392;-4.472;2023-12-28T08:23:51;13.12;74.58
76239;SHT30;65043;48.392;-4.472;2023-12-28T08:26:17;13.16;74.37
76239;SHT30;65043;48.392;-4.472;2023-12-28T08:28:42;13.19;74.23
76239;SHT30;65043;48.392;-4.472;2023-12-28T08:31:08;13.20;74.36
76239;SHT30;65043;48.392;-4.472;2023-12-28T08:33:35;13.22;74.37
76239;SHT30;65043;48.392;-4.472;2023-12-28T08:36:04;13.20;74.33
76239;SHT30;65043;48.392;-4.472;2023-12-28T08:38:30;13.26;74.48
76239;SHT30;65043;48.392;-4.472;2023-12-28T08:40:56;13.20;74.76
76239;SHT30;65043;48.392;-4.472;2023-12-28T08:43:22;13.23;75.02
76239;SHT30;65043;48.392;-4.472;2023-12-28T08:45:47;13.26;75.12
76239;SHT30;65043;48.392;-4.472;2023-12-28T08:48:14;13.27;75.18
76239;SHT30;65043;48.392;-4.472;2023-12-28T08:50:40;13.27;75.25
76239;SHT30;65043;48.392;-4.472;2023-12-28T08:53:06;13.30;75.51
76239;SHT30;65043;48.392;-4.472;2023-12-28T08:55:32;13.30;75.52
76239;SHT30;65043;48.392;-4.472;2023-12-28T08:57:59;13.27;75.18
76239;SHT30;65043;48.392;-4.472;2023-12-28T09:00:24;13.32;75.03
76239;SHT30;65043;48.392;-4.472;2023-12-28T09:02:50;13.35;74.81
76239;SHT30;65043;48.392;-4.472;2023-12-28T09:05:17;13.38;74.93
76239;SHT30;65043;48.392;-4.472;2023-12-28T09:07:43;13.36;74.93
76239;SHT30;65043;48.392;-4.472;2023-12-28T09:10:10;13.39;74.83
76239;SHT30;65043;48.392;-4.472;2023-12-28T09:12:36;13.39;74.89
76239;SHT30;65043;48.392;-4.472;2023-12-28T09:15:01;13.39;74.86
76239;SHT30;65043;48.392;-4.472;2023-12-28T09:17:27;13.40;74.65
76239;SHT30;65043;48.392;-4.472;2023-12-28T09:19:52;13.46;74.81
76239;SHT30;65043;48.392;-4.472;2023-12-28T09:22:18;13.46;75.00
76239;SHT30;65043;48.392;-4.472;2023-12-28T09:24:43;13.49;75.25
76239;SHT30;65043;48.392;-4.472;2023-12-28T09:27:09;13.50;75.37
76239;SHT30;65043;48.392;-4.472;2023-12-28T09:29:34;13.52;75.54
76239;SHT30;65043;48.392;-4.472;2023-12-28T09:32:00;13.52;75.51
76239;SHT30;65043;48.392;-4.472;2023-12-28T09:34:28;13.50;75.41
76239;SHT30;65043;48.392;-4.472;2023-12-28T09:36:54;13.53;75.49
76239;SHT30;65043;48.392;-4.472;2023-12-28T09:39:19;13.52;75.55
76239;SHT30;65043;48.392;-4.472;2023-12-28T09:41:49;13.50;75.89
76239;SHT30;65043;48.392;-4.472;2023-12-28T09:44:19;13.52;75.99
76239;SHT30;65043;48.392;-4.472;2023-12-28T09:46:45;13.54;75.57
76239;SHT30;65043;48.392;-4.472;2023-12-28T09:49:12;13.54;75.90
76239;SHT30;65043;48.392;-4.472;2023-12-28T09:51:37;13.57;76.18
76239;SHT30;65043;48.392;-4.472;2023-12-28T09:54:06;13.60;75.64
76239;SHT30;65043;48.392;-4.472;2023-12-28T09:56:32;13.69;75.76
76239;SHT30;65043;48.392;-4.472;2023-12-28T09:59:02;13.67;75.71
76239;SHT30;65043;48.392;-4.472;2023-12-28T10:01:28;13.69;75.64
76239;SHT30;65043;48.392;-4.472;2023-12-28T10:03:54;13.74;75.51
76239;SHT30;65043;48.392;-4.472;2023-12-28T10:06:19;13.71;75.30
76239;SHT30;65043;48.392;-4.472;2023-12-28T10:08:47;13.73;75.22
76239;SHT30;65043;48.392;-4.472;2023-12-28T10:11:17;13.73;75.10
76239;SHT30;65043;48.392;-4.472;2023-12-28T10:13:44;13.69;74.82
76239;SHT30;65043;48.392;-4.472;2023-12-28T10:16:11;13.69;74.80
76239;SHT30;65043;48.392;-4.472;2023-12-28T10:18:39;13.70;74.81
76239;SHT30;65043;48.392;-4.472;2023-12-28T10:21:05;13.75;74.80
76239;SHT30;65043;48.392;-4.472;2023-12-28T10:23:31;13.75;74.74
76239;SHT30;65043;48.392;-4.472;2023-12-28T10:25:59;13.77;74.74
76239;SHT30;65043;48.392;-4.472;2023-12-28T10:28:25;13.74;74.74
76239;SHT30;65043;48.392;-4.472;2023-12-28T10:30:57;13.74;74.90
76239;SHT30;65043;48.392;-4.472;2023-12-28T10:33:23;13.78;74.86
76239;SHT30;65043;48.392;-4.472;2023-12-28T10:35:50;13.78;74.87
76239;SHT30;65043;48.392;-4.472;2023-12-28T10:38:16;13.80;74.81
76239;SHT30;65043;48.392;-4.472;2023-12-28T10:40:44;13.80;74.75
76239;SHT30;65043;48.392;-4.472;2023-12-28T10:43:12;13.84;74.73
76239;SHT30;65043;48.392;-4.472;2023-12-28T10:45:40;13.81;74.55
76239;SHT30;65043;48.392;-4.472;2023-12-28T10:48:11;13.85;74.51
76239;SHT30;65043;48.392;-4.472;2023-12-28T10:50:47;13.85;74.70
76239;SHT30;65043;48.392;-4.472;2023-12-28T11:01:31;13.92;74.29
76239;SHT30;65043;48.392;-4.472;2023-12-28T11:04:03;13.92;74.35
76239;SHT30;65043;48.392;-4.472;2023-12-28T11:06:34;13.98;74.43
76239;SHT30;65043;48.392;-4.472;2023-12-28T11:09:00;14.01;74.30
76239;SHT30;65043;48.392;-4.472;2023-12-28T11:11:27;14.04;74.58
76239;SHT30;65043;48.392;-4.472;2023-12-28T11:13:55;14.07;74.66
76239;SHT30;65043;48.392;-4.472;2023-12-28T11:16:22;14.04;74.70
76239;SHT30;65043;48.392;-4.472;2023-12-28T11:18:48;14.07;74.65
76239;SHT30;65043;48.392;-4.472;2023-12-28T11:21:15;14.05;74.57
76239;SHT30;65043;48.392;-4.472;2023-12-28T11:23:42;14.11;74.57
76239;SHT30;65043;48.392;-4.472;2023-12-28T11:26:19;14.12;74.49
76239;SHT30;65043;48.392;-4.472;2023-12-28T11:28:46;14.15;74.76
76239;SHT30;65043;48.392;-4.472;2023-12-28T11:31:18;14.18;74.69
76239;SHT30;65043;48.392;-4.472;2023-12-28T11:33:45;14.24;74.46
76239;SHT30;65043;48.392;-4.472;2023-12-28T11:36:19;14.28;74.25
76239;SHT30;65043;48.392;-4.472;2023-12-28T11:38:46;14.31;74.14
76239;SHT30;65043;48.392;-4.472;2023-12-28T11:41:16;14.28;73.93
76239;SHT30;65043;48.392;-4.472;2023-12-28T11:43:42;14.28;73.81
76239;SHT30;65043;48.392;-4.472;2023-12-28T11:46:08;14.31;73.82
76239;SHT30;65043;48.392;-4.472;2023-12-28T11:48:33;14.32;74.08
76239;SHT30;65043;48.392;-4.472;2023-12-28T11:51:00;14.32;73.89
76239;SHT30;65043;48.392;-4.472;2023-12-28T11:53:26;14.33;73.87
76239;SHT30;65043;48.392;-4.472;2023-12-28T11:55:52;14.36;73.95
76239;SHT30;65043;48.392;-4.472;2023-12-28T11:58:18;14.33;74.09
76239;SHT30;65043;48.392;-4.472;2023-12-28T12:00:44;14.35;74.21
76239;SHT30;65043;48.392;-4.472;2023-12-28T12:03:10;14.35;74.21
76239;SHT30;65043;48.392;-4.472;2023-12-28T12:05:37;14.35;74.37
76239;SHT30;65043;48.392;-4.472;2023-12-28T12:08:03;14.32;74.38
76239;SHT30;65043;48.392;-4.472;2023-12-28T12:10:28;14.31;74.25
76239;SHT30;65043;48.392;-4.472;2023-12-28T12:12:54;14.28;74.04
76239;SHT30;65043;48.392;-4.472;2023-12-28T12:15:19;14.22;74.59
76239;SHT30;65043;48.392;-4.472;2023-12-28T12:17:45;14.20;74.38
76239;SHT30;65043;48.392;-4.472;2023-12-28T12:20:11;14.17;74.35
76239;SHT30;65043;48.392;-4.472;2023-12-28T12:22:37;14.15;74.39
76239;SHT30;65043;48.392;-4.472;2023-12-28T12:25:03;14.15;74.54
76239;SHT30;65043;48.392;-4.472;2023-12-28T12:27:31;14.12;74.64
76239;SHT30;65043;48.392;-4.472;2023-12-28T12:29:56;14.11;74.92
76239;SHT30;65043;48.392;-4.472;2023-12-28T12:32:22;14.12;74.75
76239;SHT30;65043;48.392;-4.472;2023-12-28T12:34:50;14.14;74.74
76239;SHT30;65043;48.392;-4.472;2023-12-28T12:37:16;14.11;74.79
76239;SHT30;65043;48.392;-4.472;2023-12-28T12:39:43;14.17;74.83
76239;SHT30;65043;48.392;-4.472;2023-12-28T12:42:13;14.17;74.80
76239;SHT30;65043;48.392;-4.472;2023-12-28T12:44:39;14.17;75.01
76239;SHT30;65043;48.392;-4.472;2023-12-28T12:47:04;14.14;75.30
76239;SHT30;65043;48.392;-4.472;2023-12-28T12:49:32;14.17;75.41
76239;SHT30;65043;48.392;-4.472;2023-12-28T12:51:58;14.25;75.46
76239;SHT30;65043;48.392;-4.472;2023-12-28T12:54:23;14.26;75.37
76239;SHT30;65043;48.392;-4.472;2023-12-28T12:56:50;14.22;75.12
76239;SHT30;65043;48.392;-4.472;2023-12-28T12:59:16;14.26;75.22
76239;SHT30;65043;48.392;-4.472;2023-12-28T13:01:45;14.28;75.06
76239;SHT30;65043;48.392;-4.472;2023-12-28T13:04:13;14.25;75.09
76239;SHT30;65043;48.392;-4.472;2023-12-28T13:06:41;14.26;75.14
76239;SHT30;65043;48.392;-4.472;2023-12-28T13:09:07;14.22;75.30
76239;SHT30;65043;48.392;-4.472;2023-12-28T13:11:36;14.26;75.48
76239;SHT30;65043;48.392;-4.472;2023-12-28T13:14:01;14.24;75.48
76239;SHT30;65043;48.392;-4.472;2023-12-28T13:16:27;14.28;75.65
76239;SHT30;65043;48.392;-4.472;2023-12-28T13:18:53;14.25;75.70
76239;SHT30;65043;48.392;-4.472;2023-12-28T13:21:18;14.26;75.78
76239;SHT30;65043;48.392;-4.472;2023-12-28T13:23:44;14.22;75.80
76239;SHT30;65043;48.392;-4.472;2023-12-28T13:26:10;14.29;76.06
76239;SHT30;65043;48.392;-4.472;2023-12-28T13:28:35;14.33;76.24
76239;SHT30;65043;48.392;-4.472;2023-12-28T13:31:00;14.38;76.17
76239;SHT30;65043;48.392;-4.472;2023-12-28T13:33:26;14.42;75.81
76239;SHT30;65043;48.392;-4.472;2023-12-28T13:35:51;14.36;75.87
76239;SHT30;65043;48.392;-4.472;2023-12-28T13:38:18;14.41;75.68
76239;SHT30;65043;48.392;-4.472;2023-12-28T13:40:43;14.48;75.47
76239;SHT30;65043;48.392;-4.472;2023-12-28T13:43:09;14.66;75.27
76239;SHT30;65043;48.392;-4.472;2023-12-28T13:45:36;14.66;75.02
76239;SHT30;65043;48.392;-4.472;2023-12-28T13:48:02;14.66;74.73
76239;SHT30;65043;48.392;-4.472;2023-12-28T13:50:28;14.69;74.35
76239;SHT30;65043;48.392;-4.472;2023-12-28T13:52:53;14.69;74.41
76239;SHT30;65043;48.392;-4.472;2023-12-28T13:55:19;14.72;74.24
76239;SHT30;65043;48.392;-4.472;2023-12-28T13:57:45;14.80;74.24
76239;SHT30;65043;48.392;-4.472;2023-12-28T14:00:11;14.87;74.29
76239;SHT30;65043;48.392;-4.472;2023-12-28T14:02:37;14.89;74.30
76239;SHT30;65043;48.392;-4.472;2023-12-28T14:05:05;14.87;74.10
76239;SHT30;65043;48.392;-4.472;2023-12-28T14:07:30;14.87;74.05
76239;SHT30;65043;48.392;-4.472;2023-12-28T14:09:56;14.80;74.29
76239;SHT30;65043;48.392;-4.472;2023-12-28T14:12:21;14.79;74.46
76239;SHT30;65043;48.392;-4.472;2023-12-28T14:14:47;14.76;74.21
76239;SHT30;65043;48.392;-4.472;2023-12-28T14:17:12;14.77;74.27
76239;SHT30;65043;48.392;-4.472;2023-12-28T14:19:38;14.66;74.46
76239;SHT30;65043;48.392;-4.472;2023-12-28T14:22:03;14.66;74.70
76239;SHT30;65043;48.392;-4.472;2023-12-28T14:24:29;14.59;74.93
76239;SHT30;65043;48.392;-4.472;2023-12-28T14:26:56;14.58;75.39
76239;SHT30;65043;48.392;-4.472;2023-12-28T14:29:22;14.53;75.47
76239;SHT30;65043;48.392;-4.472;2023-12-28T14:31:48;14.49;75.51
76239;SHT30;65043;48.392;-4.472;2023-12-28T14:34:14;14.48;75.70
76239;SHT30;65043;48.392;-4.472;2023-12-28T14:36:40;14.38;75.94
76239;SHT30;65043;48.392;-4.472;2023-12-28T14:39:07;14.36;76.03
76239;SHT30;65043;48.392;-4.472;2023-12-28T14:41:36;14.38;75.99
76239;SHT30;65043;48.392;-4.472;2023-12-28T14:44:03;14.38;76.06
76239;SHT30;65043;48.392;-4.472;2023-12-28T14:46:29;14.35;76.22
76239;SHT30;65043;48.392;-4.472;2023-12-28T14:48:55;14.38;76.27
76239;SHT30;65043;48.392;-4.472;2023-12-28T14:51:21;14.43;75.97
76239;SHT30;65043;48.392;-4.472;2023-12-28T14:53:47;14.50;75.56
76239;SHT30;65043;48.392;-4.472;2023-12-28T14:56:51;14.48;75.26
76239;SHT30;65043;48.392;-4.472;2023-12-28T14:59:18;14.50;74.92
76239;SHT30;65043;48.392;-4.472;2023-12-28T15:01:44;14.49;75.32
76239;SHT30;65043;48.392;-4.472;2023-12-28T15:04:10;14.50;75.42
76239;SHT30;65043;48.392;-4.472;2023-12-28T15:06:35;14.45;75.47
76239;SHT30;65043;48.392;-4.472;2023-12-28T15:09:01;14.43;75.48
76239;SHT30;65043;48.392;-4.472;2023-12-28T15:11:27;14.43;75.65
76239;SHT30;65043;48.392;-4.472;2023-12-28T15:13:52;14.39;75.55
76239;SHT30;65043;48.392;-4.472;2023-12-28T15:16:18;14.31;75.70
76239;SHT30;65043;48.392;-4.472;2023-12-28T15:18:45;14.36;75.84